sensor_id;sensor_type;location;lat;lon;timestamp;pressure;altitude;pressure_sealevel;temperature;humidity
12247;BME280;6186;52.022;4.692;2024-02-21T00:00:15;102275.38;;;10.56;100.00
12247;BME280;6186;52.022;4.692;2024-02-21T00:02:40;102272.72;;;10.54;100.00
12247;BME280;6186;52.022;4.692;2024-02-21T00:05:06;102270.09;;;10.56;100.00
12247;BME280;6186;52.022;4.692;2024-02-21T00:07:31;102263.94;;;10.55;100.00
12247;BME280;6186;52.022;4.692;2024-02-21T00:09:56;102257.78;;;10.56;100.00
12247;BME280;6186;52.022;4.692;2024-02-21T00:12:21;102256.91;;;10.57;100.00
12247;BME280;6186;52.022;4.692;2024-02-21T00:14:47;102257.81;;;10.58;100.00
12247;BME280;6186;52.022;4.692;2024-02-21T00:17:12;102249.94;;;10.50;100.00
12247;BME280;6186;52.022;4.692;2024-02-21T00:19:37;102273.59;;;10.58;100.00
12247;BME280;6186;52.022;4.692;2024-02-21T00:22:03;102267.47;;;10.57;100.00
12247;BME280;6186;52.022;4.692;2024-02-21T00:24:28;102257.78;;;10.56;100.00
12247;BME280;6186;52.022;4.692;2024-02-21T00:26:54;102247.25;;;10.55;100.00
12247;BME280;6186;52.022;4.692;2024-02-21T00:29:19;102242.00;;;10.53;100.00
12247;BME280;6186;52.022;4.692;2024-02-21T00:31:44;102249.91;;;10.53;100.00
12247;BME280;6186;52.022;4.692;2024-02-21T00:34:09;102261.34;;;10.52;100.00
12247;BME280;6186;52.022;4.692;2024-02-21T00:36:35;102261.34;;;10.48;100.00
12247;BME280;6186;52.022;4.692;2024-02-21T00:39:00;102269.22;;;10.52;100.00
12247;BME280;6186;52.022;4.692;2024-02-21T00:41:25;102267.44;;;10.53;100.00
12247;BME280;6186;52.022;4.692;2024-02-21T00:43:50;102266.59;;;10.54;100.00
12247;BME280;6186;52.022;4.692;2024-02-21T00:46:16;102250.78;;;10.51;100.00
12247;BME280;6186;52.022;4.692;2024-02-21T00:48:41;102260.41;;;10.56;100.00
12247;BME280;6186;52.022;4.692;2024-02-21T00:51:06;102265.69;;;10.55;100.00
12247;BME280;6186;52.022;4.692;2024-02-21T00:53:31;102266.59;;;10.55;100.00
12247;BME280;6186;52.022;4.692;2024-02-21T00:55:56;102266.56;;;10.57;100.00
12247;BME280;6186;52.022;4.692;2024-02-21T00:58:22;102265.69;;;10.56;100.00
12247;BME280;6186;52.022;4.692;2024-02-21T01:00:47;102257.78;;;10.56;100.00
12247;BME280;6186;52.022;4.692;2024-02-21T01:03:12;102236.75;;;10.49;100.00
12247;BME280;6186;52.022;4.692;2024-02-21T01:05:38;102239.38;;;10.53;100.00
12247;BME280;6186;52.022;4.692;2024-02-21T01:08:03;102245.53;;;10.52;100.00
12247;BME280;6186;52.022;4.692;2024-02-21T01:10:28;102243.75;;;10.54;100.00
12247;BME280;6186;52.022;4.692;2024-02-21T01:12:54;102237.63;;;10.55;100.00
12247;BME280;6186;52.022;4.692;2024-02-21T01:15:19;102241.13;;;10.56;100.00
12247;BME280;6186;52.022;4.692;2024-02-21T01:17:44;102231.47;;;10.55;100.00
12247;BME280;6186;52.022;4.692;2024-02-21T01:20:10;102233.22;;;10.57;100.00
12247;BME280;6186;52.022;4.692;2024-02-21T01:22:35;102225.34;;;10.56;100.00
12247;BME280;6186;52.022;4.692;2024-02-21T01:25:00;102221.81;;;10.57;100.00
12247;BME280;6186;52.022;4.692;2024-02-21T01:27:26;102225.34;;;10.56;100.00
12247;BME280;6186;52.022;4.692;2024-02-21T01:29:51;102219.19;;;10.55;100.00
12247;BME280;6186;52.022;4.692;2024-02-21T01:32:16;102217.44;;;10.56;100.00
12247;BME280;6186;52.022;4.692;2024-02-21T01:34:41;102220.06;;;10.56;100.00
12247;BME280;6186;52.022;4.692;2024-02-21T01:37:07;102209.50;;;10.54;100.00
12247;BME280;6186;52.022;4.692;2024-02-21T01:39:32;102204.25;;;10.53;100.00
12247;BME280;6186;52.022;4.692;2024-02-21T01:41:57;102210.44;;;10.52;100.00
12247;BME280;6186;52.022;4.692;2024-02-21T01:44:22;102207.78;;;10.52;100.00
12247;BME280;6186;52.022;4.692;2024-02-21T01:46:48;102209.53;;;10.51;100.00
12247;BME280;6186;52.022;4.692;2024-02-21T01:49:13;102208.66;;;10.51;100.00
12247;BME280;6186;52.022;4.692;2024-02-21T01:51:39;102213.94;;;10.49;100.00
12247;BME280;6186;52.022;4.692;2024-02-21T01:54:05;102208.66;;;10.49;100.00
12247;BME280;6186;52.022;4.692;2024-02-21T01:56:31;102212.19;;;10.48;100.00
12247;BME280;6186;52.022;4.692;2024-02-21T01:58:56;102191.13;;;10.45;100.00
12247;BME280;6186;52.022;4.692;2024-02-21T02:01:21;102195.50;;;10.49;100.00
12247;BME280;6186;52.022;4.692;2024-02-21T02:03:47;102188.50;;;10.48;100.00
12247;BME280;6186;52.022;4.692;2024-02-21T02:06:12;102182.34;;;10.49;100.00
12247;BME280;6186;52.022;4.692;2024-02-21T02:08:37;102179.72;;;10.49;100.00
12247;BME280;6186;52.022;4.692;2024-02-21T02:11:03;102178.81;;;10.49;100.00
12247;BME280;6186;52.022;4.692;2024-02-21T02:13:29;102174.44;;;10.49;100.00
12247;BME280;6186;52.022;4.692;2024-02-21T02:15:54;102168.34;;;10.44;100.00
12247;BME280;6186;52.022;4.692;2024-02-21T02:18:20;102177.06;;;10.49;100.00
12247;BME280;6186;52.022;4.692;2024-02-21T02:20:45;102175.34;;;10.48;100.00
12247;BME280;6186;52.022;4.692;2024-02-21T02:25:38;102165.69;;;10.47;100.00
12247;BME280;6186;52.022;4.692;2024-02-21T02:28:05;102156.03;;;10.48;100.00
12247;BME280;6186;52.022;4.692;2024-02-21T02:30:35;102160.44;;;10.44;100.00
12247;BME280;6186;52.022;4.692;2024-02-21T02:33:00;102156.03;;;10.48;100.00
12247;BME280;6186;52.022;4.692;2024-02-21T02:35:25;102151.63;;;10.47;100.00
12247;BME280;6186;52.022;4.692;2024-02-21T02:37:51;102151.66;;;10.48;100.00
12247;BME280;6186;52.022;4.692;2024-02-21T02:40:17;102156.91;;;10.48;100.00
12247;BME280;6186;52.022;4.692;2024-02-21T02:42:42;102152.50;;;10.47;100.00
12247;BME280;6186;52.022;4.692;2024-02-21T02:45:08;102161.28;;;10.48;100.00
12247;BME280;6186;52.022;4.692;2024-02-21T02:47:34;102150.75;;;10.48;100.00
12247;BME280;6186;52.022;4.692;2024-02-21T02:49:59;102149.00;;;10.50;100.00
12247;BME280;6186;52.022;4.692;2024-02-21T02:52:24;102143.75;;;10.50;100.00
12247;BME280;6186;52.022;4.692;2024-02-21T02:54:49;102142.84;;;10.49;100.00
12247;BME280;6186;52.022;4.692;2024-02-21T02:57:14;102135.84;;;10.47;100.00
12247;BME280;6186;52.022;4.692;2024-02-21T02:59:40;102129.69;;;10.48;100.00
12247;BME280;6186;52.022;4.692;2024-02-21T03:02:05;102128.81;;;10.47;100.00
12247;BME280;6186;52.022;4.692;2024-02-21T03:04:30;102119.19;;;10.48;100.00
12247;BME280;6186;52.022;4.692;2024-02-21T03:06:55;102113.00;;;10.49;100.00
12247;BME280;6186;52.022;4.692;2024-02-21T03:09:20;102109.53;;;10.45;100.00
12247;BME280;6186;52.022;4.692;2024-02-21T03:11:46;102097.22;;;10.49;100.00
12247;BME280;6186;52.022;4.692;2024-02-21T03:14:11;102106.03;;;10.46;100.00
12247;BME280;6186;52.022;4.692;2024-02-21T03:16:36;102104.25;;;10.47;100.00
12247;BME280;6186;52.022;4.692;2024-02-21T03:19:01;102099.88;;;10.47;100.00
12247;BME280;6186;52.022;4.692;2024-02-21T03:21:27;102091.06;;;10.47;100.00
12247;BME280;6186;52.022;4.692;2024-02-21T03:23:52;102086.69;;;10.47;100.00
12247;BME280;6186;52.022;4.692;2024-02-21T03:26:17;102084.06;;;10.47;100.00
12247;BME280;6186;52.022;4.692;2024-02-21T03:28:43;102082.31;;;10.48;100.00
12247;BME280;6186;52.022;4.692;2024-02-21T03:31:11;102077.06;;;10.48;100.00
12247;BME280;6186;52.022;4.692;2024-02-21T03:33:36;102080.56;;;10.48;100.00
12247;BME280;6186;52.022;4.692;2024-02-21T03:36:01;102086.69;;;10.47;100.00
12247;BME280;6186;52.022;4.692;2024-02-21T03:38:26;102076.16;;;10.49;100.00
12247;BME280;6186;52.022;4.692;2024-02-21T03:40:51;102073.53;;;10.49;100.00
12247;BME280;6186;52.022;4.692;2024-02-21T03:43:17;102074.41;;;10.49;100.00
12247;BME280;6186;52.022;4.692;2024-02-21T03:45:42;102072.66;;;10.48;100.00
12247;BME280;6186;52.022;4.692;2024-02-21T03:48:07;102070.03;;;10.47;100.00
12247;BME280;6186;52.022;4.692;2024-02-21T03:50:32;102070.03;;;10.45;100.00
12247;BME280;6186;52.022;4.692;2024-02-21T03:52:57;102064.78;;;10.43;100.00
12247;BME280;6186;52.022;4.692;2024-02-21T03:55:23;102067.44;;;10.42;100.00
12247;BME280;6186;52.022;4.692;2024-02-21T03:57:48;102061.31;;;10.35;100.00
12247;BME280;6186;52.022;4.692;2024-02-21T04:00:13;102071.81;;;10.40;100.00
12247;BME280;6186;52.022;4.692;2024-02-21T04:02:39;102056.06;;;10.38;100.00
12247;BME280;6186;52.022;4.692;2024-02-21T04:05:04;102056.06;;;10.37;100.00
12247;BME280;6186;52.022;4.692;2024-02-21T04:07:29;102054.28;;;10.36;100.00
12247;BME280;6186;52.022;4.692;2024-02-21T04:09:55;102048.16;;;10.34;100.00
12247;BME280;6186;52.022;4.692;2024-02-21T04:12:20;102048.19;;;10.31;100.00
12247;BME280;6186;52.022;4.692;2024-02-21T04:14:45;102028.09;;;10.18;100.00
12247;BME280;6186;52.022;4.692;2024-02-21T04:17:10;102061.34;;;10.31;100.00
12247;BME280;6186;52.022;4.692;2024-02-21T04:19:35;102056.09;;;10.29;100.00
12247;BME280;6186;52.022;4.692;2024-02-21T04:22:01;102062.22;;;10.28;100.00
12247;BME280;6186;52.022;4.692;2024-02-21T04:24:26;102056.06;;;10.28;100.00
12247;BME280;6186;52.022;4.692;2024-02-21T04:26:51;102054.34;;;10.28;100.00
12247;BME280;6186;52.022;4.692;2024-02-21T04:29:16;102048.19;;;10.28;100.00
12247;BME280;6186;52.022;4.692;2024-02-21T04:31:41;102055.22;;;10.27;100.00
12247;BME280;6186;52.022;4.692;2024-02-21T04:34:07;102050.81;;;10.28;100.00
12247;BME280;6186;52.022;4.692;2024-02-21T04:36:32;102044.69;;;10.26;100.00
12247;BME280;6186;52.022;4.692;2024-02-21T04:38:57;102040.34;;;10.23;100.00
12247;BME280;6186;52.022;4.692;2024-02-21T04:41:22;102035.91;;;10.24;100.00
12247;BME280;6186;52.022;4.692;2024-02-21T04:43:48;102029.81;;;10.20;100.00
12247;BME280;6186;52.022;4.692;2024-02-21T04:46:13;102020.16;;;10.25;100.00
12247;BME280;6186;52.022;4.692;2024-02-21T04:48:38;102017.50;;;10.24;100.00
12247;BME280;6186;52.022;4.692;2024-02-21T04:51:04;102026.28;;;10.23;100.00
12247;BME280;6186;52.022;4.692;2024-02-21T04:53:29;102016.63;;;10.22;100.00
12247;BME280;6186;52.022;4.692;2024-02-21T04:55:54;102017.50;;;10.22;100.00
12247;BME280;6186;52.022;4.692;2024-02-21T04:58:19;102014.94;;;10.18;100.00
12247;BME280;6186;52.022;4.692;2024-02-21T05:00:44;102019.25;;;10.22;100.00
12247;BME280;6186;52.022;4.692;2024-02-21T05:03:10;102010.53;;;10.21;100.00
12247;BME280;6186;52.022;4.692;2024-02-21T05:05:35;102007.91;;;10.20;100.00
12247;BME280;6186;52.022;4.692;2024-02-21T05:08:00;101999.13;;;10.19;100.00
12247;BME280;6186;52.022;4.692;2024-02-21T05:10:25;101989.47;;;10.18;100.00
12247;BME280;6186;52.022;4.692;2024-02-21T05:12:51;101985.97;;;10.19;100.00
12247;BME280;6186;52.022;4.692;2024-02-21T05:15:16;101968.44;;;10.20;100.00
12247;BME280;6186;52.022;4.692;2024-02-21T05:17:41;101972.81;;;10.15;100.00
12247;BME280;6186;52.022;4.692;2024-02-21T05:20:07;101977.19;;;10.19;100.00
12247;BME280;6186;52.022;4.692;2024-02-21T05:22:32;101989.47;;;10.18;100.00
12247;BME280;6186;52.022;4.692;2024-02-21T05:24:57;101973.72;;;10.14;100.00
12247;BME280;6186;52.022;4.692;2024-02-21T05:27:22;101958.78;;;10.19;100.00
12247;BME280;6186;52.022;4.692;2024-02-21T05:29:48;101929.03;;;10.00;100.00
12247;BME280;6186;52.022;4.692;2024-02-21T05:32:13;101953.50;;;10.19;100.00
12247;BME280;6186;52.022;4.692;2024-02-21T05:34:38;101947.38;;;10.18;100.00
12247;BME280;6186;52.022;4.692;2024-02-21T05:37:03;101938.63;;;10.18;100.00
12247;BME280;6186;52.022;4.692;2024-02-21T05:39:29;101943.03;;;10.16;100.00
12247;BME280;6186;52.022;4.692;2024-02-21T05:41:54;101936.88;;;10.15;100.00
12247;BME280;6186;52.022;4.692;2024-02-21T05:44:19;101932.50;;;10.13;100.00
12247;BME280;6186;52.022;4.692;2024-02-21T05:46:46;101935.13;;;10.13;100.00
12247;BME280;6186;52.022;4.692;2024-02-21T05:49:11;101922.88;;;10.10;100.00
12247;BME280;6186;52.022;4.692;2024-02-21T05:51:36;101921.09;;;10.11;100.00
12247;BME280;6186;52.022;4.692;2024-02-21T05:54:01;101923.72;;;10.11;100.00
12247;BME280;6186;52.022;4.692;2024-02-21T05:56:27;101911.47;;;10.10;100.00
12247;BME280;6186;52.022;4.692;2024-02-21T05:58:52;101912.31;;;10.09;100.00
12247;BME280;6186;52.022;4.692;2024-02-21T06:01:17;101907.13;;;10.00;100.00
12247;BME280;6186;52.022;4.692;2024-02-21T06:03:42;101903.56;;;10.05;100.00
12247;BME280;6186;52.022;4.692;2024-02-21T06:06:08;101902.72;;;10.05;100.00
12247;BME280;6186;52.022;4.692;2024-02-21T06:08:33;101904.47;;;10.03;100.00
12247;BME280;6186;52.022;4.692;2024-02-21T06:10:58;101904.47;;;10.04;100.00
12247;BME280;6186;52.022;4.692;2024-02-21T06:13:23;101894.81;;;10.02;100.00
12247;BME280;6186;52.022;4.692;2024-02-21T06:15:50;101902.72;;;10.05;100.00
12247;BME280;6186;52.022;4.692;2024-02-21T06:18:17;101910.59;;;10.06;100.00
12247;BME280;6186;52.022;4.692;2024-02-21T06:20:42;101882.63;;;9.93;100.00
12247;BME280;6186;52.022;4.692;2024-02-21T06:23:07;101905.31;;;10.03;100.00
12247;BME280;6186;52.022;4.692;2024-02-21T06:25:33;101925.50;;;10.06;100.00
12247;BME280;6186;52.022;4.692;2024-02-21T06:27:58;101922.88;;;10.04;100.00
12247;BME280;6186;52.022;4.692;2024-02-21T06:30:23;101924.66;;;10.02;100.00
12247;BME280;6186;52.022;4.692;2024-02-21T06:32:48;101924.66;;;10.02;100.00
12247;BME280;6186;52.022;4.692;2024-02-21T06:35:14;101926.38;;;10.02;100.00
12247;BME280;6186;52.022;4.692;2024-02-21T06:37:39;101920.25;;;10.01;100.00
12247;BME280;6186;52.022;4.692;2024-02-21T06:40:04;101915.00;;;10.00;100.00
12247;BME280;6186;52.022;4.692;2024-02-21T06:42:30;101909.75;;;10.00;100.00
12247;BME280;6186;52.022;4.692;2024-02-21T06:44:55;101905.41;;;9.97;100.00
12247;BME280;6186;52.022;4.692;2024-02-21T06:47:20;101894.00;;;9.95;100.00
12247;BME280;6186;52.022;4.692;2024-02-21T06:49:49;101894.88;;;9.94;100.00
12247;BME280;6186;52.022;4.692;2024-02-21T06:52:14;101887.88;;;9.93;100.00
12247;BME280;6186;52.022;4.692;2024-02-21T06:54:39;101894.88;;;9.90;100.00
12247;BME280;6186;52.022;4.692;2024-02-21T06:57:04;101882.63;;;9.90;100.00
12247;BME280;6186;52.022;4.692;2024-02-21T06:59:30;101880.00;;;9.89;100.00
12247;BME280;6186;52.022;4.692;2024-02-21T07:01:55;101883.50;;;9.91;100.00
12247;BME280;6186;52.022;4.692;2024-02-21T07:04:20;101856.41;;;9.75;100.00
12247;BME280;6186;52.022;4.692;2024-02-21T07:06:45;101872.13;;;9.89;100.00
12247;BME280;6186;52.022;4.692;2024-02-21T07:09:11;101880.88;;;9.91;100.00
12247;BME280;6186;52.022;4.692;2024-02-21T07:11:36;101867.75;;;9.85;100.00
12247;BME280;6186;52.022;4.692;2024-02-21T07:14:01;101879.09;;;9.90;100.00
12247;BME280;6186;52.022;4.692;2024-02-21T07:16:26;101875.63;;;9.89;100.00
12247;BME280;6186;52.022;4.692;2024-02-21T07:18:52;101873.84;;;9.90;100.00
12247;BME280;6186;52.022;4.692;2024-02-21T07:21:17;101858.06;;;9.90;100.00
12247;BME280;6186;52.022;4.692;2024-02-21T07:23:42;101855.44;;;9.90;100.00
12247;BME280;6186;52.022;4.692;2024-02-21T07:26:07;101853.69;;;9.89;100.00
12247;BME280;6186;52.022;4.692;2024-02-21T07:28:33;101854.56;;;9.91;100.00
12247;BME280;6186;52.022;4.692;2024-02-21T07:30:59;101837.03;;;9.90;100.00
12247;BME280;6186;52.022;4.692;2024-02-21T07:33:24;101830.91;;;9.91;100.00
12247;BME280;6186;52.022;4.692;2024-02-21T07:35:50;101813.41;;;9.87;100.00
12247;BME280;6186;52.022;4.692;2024-02-21T07:38:15;101822.16;;;9.89;100.00
12247;BME280;6186;52.022;4.692;2024-02-21T07:40:40;101827.44;;;9.86;100.00
12247;BME280;6186;52.022;4.692;2024-02-21T07:43:05;101824.78;;;9.84;100.00
12247;BME280;6186;52.022;4.692;2024-02-21T07:45:31;101810.84;;;9.78;100.00
12247;BME280;6186;52.022;4.692;2024-02-21T07:47:56;101829.22;;;9.81;100.00
12247;BME280;6186;52.022;4.692;2024-02-21T07:50:21;101821.34;;;9.78;100.00
12247;BME280;6186;52.022;4.692;2024-02-21T07:52:46;101814.31;;;9.80;100.00
12247;BME280;6186;52.022;4.692;2024-02-21T07:55:12;101809.94;;;9.80;100.00
12247;BME280;6186;52.022;4.692;2024-02-21T07:57:37;101793.31;;;9.75;100.00
12247;BME280;6186;52.022;4.692;2024-02-21T08:00:03;101796.81;;;9.80;100.00
12247;BME280;6186;52.022;4.692;2024-02-21T08:02:28;101800.31;;;9.79;100.00
12247;BME280;6186;52.022;4.692;2024-02-21T08:04:54;101803.81;;;9.80;100.00
12247;BME280;6186;52.022;4.692;2024-02-21T08:07:19;101797.66;;;9.81;100.00
12247;BME280;6186;52.022;4.692;2024-02-21T08:09:44;101795.88;;;9.83;100.00
12247;BME280;6186;52.022;4.692;2024-02-21T08:12:09;101788.91;;;9.82;100.00
12247;BME280;6186;52.022;4.692;2024-02-21T08:14:34;101787.13;;;9.84;100.00
12247;BME280;6186;52.022;4.692;2024-02-21T08:17:00;101782.75;;;9.81;100.00
12247;BME280;6186;52.022;4.692;2024-02-21T08:19:25;101780.97;;;9.85;100.00
12247;BME280;6186;52.022;4.692;2024-02-21T08:21:50;101774.84;;;9.86;100.00
12247;BME280;6186;52.022;4.692;2024-02-21T08:24:16;101768.69;;;9.87;100.00
12247;BME280;6186;52.022;4.692;2024-02-21T08:26:41;101771.31;;;9.88;100.00
12247;BME280;6186;52.022;4.692;2024-02-21T08:29:07;101764.34;;;9.86;100.00
12247;BME280;6186;52.022;4.692;2024-02-21T08:31:32;101772.16;;;9.90;100.00
12247;BME280;6186;52.022;4.692;2024-02-21T08:33:58;101763.41;;;9.90;100.00
12247;BME280;6186;52.022;4.692;2024-02-21T08:36:23;101756.38;;;9.92;100.00
12247;BME280;6186;52.022;4.692;2024-02-21T08:38:48;101746.72;;;9.92;100.00
12247;BME280;6186;52.022;4.692;2024-02-21T08:41:14;101747.59;;;9.93;100.00
12247;BME280;6186;52.022;4.692;2024-02-21T08:43:39;101757.22;;;9.94;100.00
12247;BME280;6186;52.022;4.692;2024-02-21T08:46:05;101747.59;;;9.94;100.00
12247;BME280;6186;52.022;4.692;2024-02-21T08:48:30;101751.06;;;9.98;100.00
12247;BME280;6186;52.022;4.692;2024-02-21T08:50:55;101749.31;;;9.98;100.00
12247;BME280;6186;52.022;4.692;2024-02-21T08:53:21;101735.25;;;9.99;100.00
12247;BME280;6186;52.022;4.692;2024-02-21T08:55:46;101743.16;;;10.01;100.00
12247;BME280;6186;52.022;4.692;2024-02-21T08:58:11;101736.13;;;10.01;100.00
12247;BME280;6186;52.022;4.692;2024-02-21T09:00:37;101732.66;;;10.01;100.00
12247;BME280;6186;52.022;4.692;2024-02-21T09:03:02;101721.25;;;10.00;100.00
12247;BME280;6186;52.022;4.692;2024-02-21T09:05:28;101720.38;;;10.00;100.00
12247;BME280;6186;52.022;4.692;2024-02-21T09:07:53;101719.53;;;9.96;100.00
12247;BME280;6186;52.022;4.692;2024-02-21T09:10:18;101716.91;;;9.95;100.00
12247;BME280;6186;52.022;4.692;2024-02-21T09:12:43;101702.03;;;9.92;100.00
12247;BME280;6186;52.022;4.692;2024-02-21T09:15:09;101702.00;;;9.94;100.00
12247;BME280;6186;52.022;4.692;2024-02-21T09:17:34;101691.50;;;9.95;100.00
12247;BME280;6186;52.022;4.692;2024-02-21T09:19:59;101692.34;;;9.97;100.00
12247;BME280;6186;52.022;4.692;2024-02-21T09:22:24;101680.03;;;9.99;100.00
12247;BME280;6186;52.022;4.692;2024-02-21T09:24:50;101677.41;;;9.98;100.00
12247;BME280;6186;52.022;4.692;2024-02-21T09:27:15;101662.53;;;9.98;100.00
12247;BME280;6186;52.022;4.692;2024-02-21T09:29:40;101669.53;;;10.01;100.00
12247;BME280;6186;52.022;4.692;2024-02-21T09:32:05;101666.00;;;10.02;100.00
12247;BME280;6186;52.022;4.692;2024-02-21T09:34:31;101650.22;;;10.02;100.00
12247;BME280;6186;52.022;4.692;2024-02-21T09:36:56;101642.31;;;10.05;100.00
12247;BME280;6186;52.022;4.692;2024-02-21T09:39:21;101628.25;;;10.06;100.00
12247;BME280;6186;52.022;4.692;2024-02-21T09:41:53;101630.84;;;10.07;100.00
12247;BME280;6186;52.022;4.692;2024-02-21T09:44:24;101627.38;;;10.10;100.00
12247;BME280;6186;52.022;4.692;2024-02-21T09:47:10;101613.31;;;10.11;100.00
12247;BME280;6186;52.022;4.692;2024-02-21T09:49:40;101607.16;;;10.13;100.00
12247;BME280;6186;52.022;4.692;2024-02-21T09:52:06;101595.75;;;10.16;100.00
12247;BME280;6186;52.022;4.692;2024-02-21T09:54:33;101582.53;;;10.19;100.00
12247;BME280;6186;52.022;4.692;2024-02-21T09:57:03;101579.00;;;10.23;100.00
12247;BME280;6186;52.022;4.692;2024-02-21T09:59:30;101585.91;;;10.30;100.00
12247;BME280;6186;52.022;4.692;2024-02-21T10:01:55;101547.47;;;10.17;100.00
12247;BME280;6186;52.022;4.692;2024-02-21T10:04:21;101575.34;;;10.34;100.00
12247;BME280;6186;52.022;4.692;2024-02-21T10:06:47;101574.34;;;10.43;100.00
12247;BME280;6186;52.022;4.692;2024-02-21T10:09:25;101570.78;;;10.47;100.00
12247;BME280;6186;52.022;4.692;2024-02-21T10:11:51;101560.22;;;10.49;100.00
12247;BME280;6186;52.022;4.692;2024-02-21T10:14:16;101549.66;;;10.53;100.00
12247;BME280;6186;52.022;4.692;2024-02-21T10:16:41;101532.94;;;10.56;100.00
12247;BME280;6186;52.022;4.692;2024-02-21T10:19:06;101524.19;;;10.54;100.00
12247;BME280;6186;52.022;4.692;2024-02-21T10:21:32;101529.50;;;10.52;100.00
12247;BME280;6186;52.022;4.692;2024-02-21T10:23:57;101511.16;;;10.46;100.00
12247;BME280;6186;52.022;4.692;2024-02-21T10:26:22;101489.25;;;10.44;100.00
12247;BME280;6186;52.022;4.692;2024-02-21T10:28:47;101472.59;;;10.42;100.00
12247;BME280;6186;52.022;4.692;2024-02-21T10:31:26;101478.72;;;10.44;100.00
12247;BME280;6186;52.022;4.692;2024-02-21T10:33:59;101504.97;;;10.47;100.00
12247;BME280;6186;52.022;4.692;2024-02-21T10:36:25;101507.59;;;10.47;100.00
12247;BME280;6186;52.022;4.692;2024-02-21T10:38:51;101513.69;;;10.51;100.00
12247;BME280;6186;52.022;4.692;2024-02-21T10:41:19;101521.59;;;10.51;100.00
12247;BME280;6186;52.022;4.692;2024-02-21T10:43:48;101516.34;;;10.49;100.00
12247;BME280;6186;52.022;4.692;2024-02-21T10:46:15;101522.53;;;10.47;100.00
12247;BME280;6186;52.022;4.692;2024-02-21T10:48:45;101534.81;;;10.48;100.00
12247;BME280;6186;52.022;4.692;2024-02-21T10:51:18;101518.09;;;10.49;100.00
12247;BME280;6186;52.022;4.692;2024-02-21T10:56:28;101506.72;;;10.48;100.00
12247;BME280;6186;52.022;4.692;2024-02-21T10:58:54;101504.09;;;10.47;100.00
12247;BME280;6186;52.022;4.692;2024-02-21T11:01:21;101497.06;;;10.47;100.00
12247;BME280;6186;52.022;4.692;2024-02-21T11:03:49;101515.56;;;10.44;100.00
12247;BME280;6186;52.022;4.692;2024-02-21T11:06:16;101493.53;;;10.50;100.00
12247;BME280;6186;52.022;4.692;2024-02-21T11:08:42;101497.94;;;10.49;100.00
12247;BME280;6186;52.022;4.692;2024-02-21T11:11:08;101492.66;;;10.49;100.00
12247;BME280;6186;52.022;4.692;2024-02-21T11:13:36;101483.91;;;10.47;100.00
12247;BME280;6186;52.022;4.692;2024-02-21T11:16:07;101469.84;;;10.50;100.00
12247;BME280;6186;52.022;4.692;2024-02-21T11:18:32;101437.34;;;10.54;100.00
12247;BME280;6186;52.022;4.692;2024-02-21T11:20:57;101431.13;;;10.58;100.00
12247;BME280;6186;52.022;4.692;2024-02-21T11:23:26;101423.13;;;10.65;100.00
12247;BME280;6186;52.022;4.692;2024-02-21T11:25:51;101415.09;;;10.71;100.00
12247;BME280;6186;52.022;4.692;2024-02-21T11:28:25;101430.84;;;10.74;100.00
12247;BME280;6186;52.022;4.692;2024-02-21T11:30:50;101416.75;;;10.78;100.00
12247;BME280;6186;52.022;4.692;2024-02-21T11:33:16;101401.72;;;10.83;100.00
12247;BME280;6186;52.022;4.692;2024-02-21T11:35:42;101378.81;;;10.90;100.00
12247;BME280;6186;52.022;4.692;2024-02-21T11:38:11;101405.00;;;10.97;100.00
12247;BME280;6186;52.022;4.692;2024-02-21T11:40:38;101372.47;;;10.98;100.00
12247;BME280;6186;52.022;4.692;2024-02-21T11:43:04;101377.72;;;11.01;100.00
12247;BME280;6186;52.022;4.692;2024-02-21T11:45:29;101375.97;;;11.00;100.00
12247;BME280;6186;52.022;4.692;2024-02-21T11:47:54;101358.44;;;10.99;100.00
12247;BME280;6186;52.022;4.692;2024-02-21T11:50:19;101353.09;;;11.02;100.00
12247;BME280;6186;52.022;4.692;2024-02-21T11:52:45;101352.06;;;11.09;100.00
12247;BME280;6186;52.022;4.692;2024-02-21T11:55:10;101351.19;;;11.10;100.00
12247;BME280;6186;52.022;4.692;2024-02-21T11:57:37;101341.47;;;11.14;100.00
12247;BME280;6186;52.022;4.692;2024-02-21T12:00:16;101336.16;;;11.15;100.00
12247;BME280;6186;52.022;4.692;2024-02-21T12:02:42;101323.06;;;11.11;100.00
12247;BME280;6186;52.022;4.692;2024-02-21T12:05:08;101324.78;;;11.13;100.00
12247;BME280;6186;52.022;4.692;2024-02-21T12:07:33;101320.47;;;11.09;100.00
12247;BME280;6186;52.022;4.692;2024-02-21T12:09:59;101298.66;;;11.03;100.00
12247;BME280;6186;52.022;4.692;2024-02-21T12:12:24;101296.78;;;11.08;100.00
12247;BME280;6186;52.022;4.692;2024-02-21T12:14:55;101295.06;;;11.07;100.00
12247;BME280;6186;52.022;4.692;2024-02-21T12:17:21;101288.97;;;11.03;100.00
12247;BME280;6186;52.022;4.692;2024-02-21T12:19:46;101258.41;;;10.95;100.00
12247;BME280;6186;52.022;4.692;2024-02-21T12:22:17;101260.09;;;10.99;100.00
12247;BME280;6186;52.022;4.692;2024-02-21T12:24:43;101247.84;;;10.96;100.00
12247;BME280;6186;52.022;4.692;2024-02-21T12:27:08;101247.91;;;10.93;100.00
12247;BME280;6186;52.022;4.692;2024-02-21T12:29:33;101231.28;;;10.91;100.00
12247;BME280;6186;52.022;4.692;2024-02-21T12:31:58;101228.69;;;10.88;100.00
12247;BME280;6186;52.022;4.692;2024-02-21T12:34:24;101208.56;;;10.86;100.00
12247;BME280;6186;52.022;4.692;2024-02-21T12:36:49;101204.28;;;10.80;100.00
12247;BME280;6186;52.022;4.692;2024-02-21T12:39:14;101205.19;;;10.79;100.00
12247;BME280;6186;52.022;4.692;2024-02-21T12:41:40;101193.78;;;10.79;100.00
12247;BME280;6186;52.022;4.692;2024-02-21T12:44:09;101186.81;;;10.76;100.00
12247;BME280;6186;52.022;4.692;2024-02-21T12:46:34;101192.09;;;10.76;100.00
12247;BME280;6186;52.022;4.692;2024-02-21T12:49:01;101178.00;;;10.77;100.00